sensor_id;sensor_type;location;lat;lon;timestamp;pressure;altitude;pressure_sealevel;temperature;humidity
34237;BME280;20501;45.956;13.632;2023-06-19T00:02:17;100650.63;;;18.69;61.24
34237;BME280;20501;45.956;13.632;2023-06-19T00:04:43;100642.69;;;18.59;60.98
34237;BME280;20501;45.956;13.632;2023-06-19T00:07:08;100639.22;;;18.65;60.87
34237;BME280;20501;45.956;13.632;2023-06-19T00:09:33;100635.06;;;18.54;61.07
34237;BME280;20501;45.956;13.632;2023-06-19T00:11:59;100638.91;;;18.60;61.92
34237;BME280;20501;45.956;13.632;2023-06-19T00:14:25;100627.44;;;18.50;61.96
34237;BME280;20501;45.956;13.632;2023-06-19T00:16:50;100627.72;;;18.55;62.05
34237;BME280;20501;45.956;13.632;2023-06-19T00:19:16;100634.78;;;18.64;62.53
34237;BME280;20501;45.956;13.632;2023-06-19T00:21:42;100632.81;;;18.43;62.15
34237;BME280;20501;45.956;13.632;2023-06-19T00:24:08;100626.13;;;18.46;60.97
34237;BME280;20501;45.956;13.632;2023-06-19T00:26:34;100628.38;;;18.42;60.37
34237;BME280;20501;45.956;13.632;2023-06-19T00:28:59;100626.13;;;18.46;60.08
34237;BME280;20501;45.956;13.632;2023-06-19T00:31:25;100623.06;;;18.70;60.32
34237;BME280;20501;45.956;13.632;2023-06-19T00:33:52;100631.34;;;18.77;60.73
34237;BME280;20501;45.956;13.632;2023-06-19T00:36:18;100633.47;;;18.97;63.77
34237;BME280;20501;45.956;13.632;2023-06-19T00:38:48;100640.84;;;18.96;64.82
34237;BME280;20501;45.956;13.632;2023-06-19T00:41:15;100634.03;;;18.92;64.78
34237;BME280;20501;45.956;13.632;2023-06-19T00:43:41;100639.69;;;19.06;65.65
34237;BME280;20501;45.956;13.632;2023-06-19T00:46:07;100639.09;;;19.10;66.12
34237;BME280;20501;45.956;13.632;2023-06-19T00:48:34;100642.88;;;19.09;66.11
34237;BME280;20501;45.956;13.632;2023-06-19T00:51:00;100644.41;;;18.97;68.64
34237;BME280;20501;45.956;13.632;2023-06-19T00:53:25;100641.44;;;18.77;62.84
34237;BME280;20501;45.956;13.632;2023-06-19T00:55:53;100645.75;;;18.86;68.32
34237;BME280;20501;45.956;13.632;2023-06-19T00:58:21;100643.22;;;18.99;67.15
34237;BME280;20501;45.956;13.632;2023-06-19T01:00:47;100637.31;;;19.02;68.71
34237;BME280;20501;45.956;13.632;2023-06-19T01:03:14;100627.69;;;19.07;68.70
34237;BME280;20501;45.956;13.632;2023-06-19T01:05:39;100626.69;;;18.93;67.73
34237;BME280;20501;45.956;13.632;2023-06-19T01:10:47;100626.41;;;18.87;63.13
34237;BME280;20501;45.956;13.632;2023-06-19T01:16:21;100630.59;;;18.68;63.99
34237;BME280;20501;45.956;13.632;2023-06-19T01:18:48;100638.72;;;18.77;66.28
34237;BME280;20501;45.956;13.632;2023-06-19T01:21:18;100626.31;;;18.81;64.15
34237;BME280;20501;45.956;13.632;2023-06-19T01:23:44;100628.38;;;18.42;61.38
34237;BME280;20501;45.956;13.632;2023-06-19T01:26:11;100643.69;;;18.06;60.20
34237;BME280;20501;45.956;13.632;2023-06-19T01:28:41;100632.00;;;18.28;60.82
34237;BME280;20501;45.956;13.632;2023-06-19T01:31:23;100633.03;;;17.97;62.01
34237;BME280;20501;45.956;13.632;2023-06-19T01:33:51;100634.53;;;18.14;61.08
34237;BME280;20501;45.956;13.632;2023-06-19T01:36:17;100629.41;;;17.96;62.49
34237;BME280;20501;45.956;13.632;2023-06-19T01:38:45;100626.81;;;18.03;61.17
34237;BME280;20501;45.956;13.632;2023-06-19T01:41:14;100620.38;;;17.81;62.20
34237;BME280;20501;45.956;13.632;2023-06-19T01:43:40;100615.53;;;17.83;62.07
34237;BME280;20501;45.956;13.632;2023-06-19T01:46:06;100623.19;;;17.87;61.06
34237;BME280;20501;45.956;13.632;2023-06-19T01:48:31;100622.94;;;17.97;59.78
34237;BME280;20501;45.956;13.632;2023-06-19T01:50:57;100622.75;;;17.99;60.27
34237;BME280;20501;45.956;13.632;2023-06-19T01:53:22;100627.47;;;18.05;59.08
34237;BME280;20501;45.956;13.632;2023-06-19T01:55:48;100618.97;;;18.00;59.29
34237;BME280;20501;45.956;13.632;2023-06-19T01:58:14;100620.03;;;17.99;58.98
34237;BME280;20501;45.956;13.632;2023-06-19T02:00:39;100623.41;;;18.16;58.19
34237;BME280;20501;45.956;13.632;2023-06-19T02:03:04;100616.06;;;18.31;58.20
34237;BME280;20501;45.956;13.632;2023-06-19T02:05:30;100619.53;;;18.55;65.64
34237;BME280;20501;45.956;13.632;2023-06-19T02:07:56;100624.22;;;18.61;60.10
34237;BME280;20501;45.956;13.632;2023-06-19T02:10:22;100625.53;;;18.65;61.39
34237;BME280;20501;45.956;13.632;2023-06-19T02:12:47;100624.75;;;18.71;63.14
34237;BME280;20501;45.956;13.632;2023-06-19T02:15:13;100633.06;;;18.63;64.44
34237;BME280;20501;45.956;13.632;2023-06-19T02:17:38;100625.19;;;18.38;64.60
34237;BME280;20501;45.956;13.632;2023-06-19T02:20:04;100630.66;;;18.38;65.72
34237;BME280;20501;45.956;13.632;2023-06-19T02:22:34;100622.09;;;18.27;60.86
34237;BME280;20501;45.956;13.632;2023-06-19T02:24:59;100627.75;;;18.25;67.03
34237;BME280;20501;45.956;13.632;2023-06-19T02:27:25;100625.00;;;18.25;63.58
34237;BME280;20501;45.956;13.632;2023-06-19T02:29:50;100629.19;;;18.06;65.93
34237;BME280;20501;45.956;13.632;2023-06-19T02:32:16;100636.00;;;17.87;63.80
34237;BME280;20501;45.956;13.632;2023-06-19T02:34:41;100630.22;;;18.05;63.41
34237;BME280;20501;45.956;13.632;2023-06-19T02:37:06;100637.13;;;17.77;63.92
34237;BME280;20501;45.956;13.632;2023-06-19T02:39:33;100641.47;;;17.87;65.34
34237;BME280;20501;45.956;13.632;2023-06-19T02:41:58;100637.69;;;17.73;63.53
34237;BME280;20501;45.956;13.632;2023-06-19T02:44:25;100646.31;;;18.15;68.51
34237;BME280;20501;45.956;13.632;2023-06-19T02:46:50;100637.38;;;18.21;62.43
34237;BME280;20501;45.956;13.632;2023-06-19T02:49:15;100640.78;;;18.08;60.64
34237;BME280;20501;45.956;13.632;2023-06-19T02:51:41;100633.88;;;17.97;67.07
34237;BME280;20501;45.956;13.632;2023-06-19T02:54:06;100630.69;;;18.08;59.95
34237;BME280;20501;45.956;13.632;2023-06-19T02:56:32;100637.47;;;18.28;69.53
34237;BME280;20501;45.956;13.632;2023-06-19T02:58:57;100631.22;;;18.49;67.77
34237;BME280;20501;45.956;13.632;2023-06-19T03:01:23;100621.78;;;18.36;59.90
34237;BME280;20501;45.956;13.632;2023-06-19T03:03:49;100623.41;;;18.31;61.08
34237;BME280;20501;45.956;13.632;2023-06-19T03:06:14;100634.84;;;18.34;64.99
34237;BME280;20501;45.956;13.632;2023-06-19T03:08:40;100635.56;;;18.43;66.41
34237;BME280;20501;45.956;13.632;2023-06-19T03:11:05;100631.31;;;18.40;67.38
34237;BME280;20501;45.956;13.632;2023-06-19T03:13:47;100637.06;;;18.31;59.56
34237;BME280;20501;45.956;13.632;2023-06-19T03:16:13;100644.81;;;18.27;66.41
34237;BME280;20501;45.956;13.632;2023-06-19T03:18:40;100648.31;;;18.21;60.04
34237;BME280;20501;45.956;13.632;2023-06-19T03:21:05;100648.59;;;18.41;65.58
34237;BME280;20501;45.956;13.632;2023-06-19T03:23:31;100658.41;;;18.35;67.30
34237;BME280;20501;45.956;13.632;2023-06-19T03:25:56;100656.84;;;17.88;61.19
34237;BME280;20501;45.956;13.632;2023-06-19T03:28:23;100656.94;;;17.94;64.33
34237;BME280;20501;45.956;13.632;2023-06-19T03:30:49;100656.91;;;17.64;63.39
34237;BME280;20501;45.956;13.632;2023-06-19T03:33:14;100655.81;;;17.89;65.98
34237;BME280;20501;45.956;13.632;2023-06-19T03:35:40;100652.72;;;17.92;64.78
34237;BME280;20501;45.956;13.632;2023-06-19T03:38:06;100659.38;;;17.89;61.90
34237;BME280;20501;45.956;13.632;2023-06-19T03:40:31;100659.88;;;17.55;63.05
34237;BME280;20501;45.956;13.632;2023-06-19T03:42:57;100658.44;;;17.44;62.37
34237;BME280;20501;45.956;13.632;2023-06-19T03:45:22;100654.41;;;17.55;61.94
34237;BME280;20501;45.956;13.632;2023-06-19T03:47:47;100667.41;;;17.91;65.88
34237;BME280;20501;45.956;13.632;2023-06-19T03:50:13;100666.75;;;17.89;60.57
34237;BME280;20501;45.956;13.632;2023-06-19T03:52:38;100662.63;;;17.55;60.43
34237;BME280;20501;45.956;13.632;2023-06-19T03:55:04;100667.31;;;17.84;68.39
34237;BME280;20501;45.956;13.632;2023-06-19T03:57:30;100664.53;;;17.69;60.09
34237;BME280;20501;45.956;13.632;2023-06-19T03:59:56;100668.44;;;17.90;62.74
34237;BME280;20501;45.956;13.632;2023-06-19T04:02:21;100663.28;;;18.10;61.56
34237;BME280;20501;45.956;13.632;2023-06-19T04:04:47;100664.41;;;18.16;60.14
34237;BME280;20501;45.956;13.632;2023-06-19T04:07:13;100667.66;;;18.19;66.35
34237;BME280;20501;45.956;13.632;2023-06-19T04:09:39;100669.28;;;17.90;60.14
34237;BME280;20501;45.956;13.632;2023-06-19T04:12:04;100671.03;;;18.21;60.40
34237;BME280;20501;45.956;13.632;2023-06-19T04:14:30;100669.25;;;18.29;67.59
34237;BME280;20501;45.956;13.632;2023-06-19T04:16:55;100663.22;;;18.18;59.67
34237;BME280;20501;45.956;13.632;2023-06-19T04:19:21;100674.72;;;17.75;59.75
34237;BME280;20501;45.956;13.632;2023-06-19T04:21:46;100664.59;;;17.61;61.39
34237;BME280;20501;45.956;13.632;2023-06-19T04:24:11;100676.09;;;17.71;64.94
34237;BME280;20501;45.956;13.632;2023-06-19T04:26:37;100668.16;;;17.46;60.28
34237;BME280;20501;45.956;13.632;2023-06-19T04:29:03;100669.13;;;17.69;61.24
34237;BME280;20501;45.956;13.632;2023-06-19T04:31:28;100674.00;;;17.82;61.05
34237;BME280;20501;45.956;13.632;2023-06-19T04:33:55;100665.38;;;18.08;64.90
34237;BME280;20501;45.956;13.632;2023-06-19T04:36:22;100669.13;;;17.69;60.67
34237;BME280;20501;45.956;13.632;2023-06-19T04:38:48;100669.34;;;17.67;61.89
34237;BME280;20501;45.956;13.632;2023-06-19T04:41:16;100670.72;;;17.63;61.24
34237;BME280;20501;45.956;13.632;2023-06-19T04:43:42;100670.69;;;17.86;61.14
34237;BME280;20501;45.956;13.632;2023-06-19T04:46:07;100664.91;;;17.66;61.81
34237;BME280;20501;45.956;13.632;2023-06-19T04:48:33;100666.25;;;17.47;63.26
34237;BME280;20501;45.956;13.632;2023-06-19T04:51:01;100664.44;;;17.62;64.12
34237;BME280;20501;45.956;13.632;2023-06-19T04:53:27;100670.28;;;17.98;66.35
34237;BME280;20501;45.956;13.632;2023-06-19T04:55:53;100668.03;;;17.78;62.41
34237;BME280;20501;45.956;13.632;2023-06-19T04:58:20;100670.13;;;17.91;63.96
34237;BME280;20501;45.956;13.632;2023-06-19T05:00:46;100670.69;;;17.86;64.12
34237;BME280;20501;45.956;13.632;2023-06-19T05:03:17;100675.81;;;18.04;62.35
34237;BME280;20501;45.956;13.632;2023-06-19T05:05:43;100672.06;;;18.05;62.89
34237;BME280;20501;45.956;13.632;2023-06-19T05:08:09;100673.47;;;18.01;63.47
34237;BME280;20501;45.956;13.632;2023-06-19T05:10:34;100665.16;;;17.94;63.10
34237;BME280;20501;45.956;13.632;2023-06-19T05:13:00;100677.06;;;18.17;62.98
34237;BME280;20501;45.956;13.632;2023-06-19T05:15:26;100680.00;;;18.15;62.66
34237;BME280;20501;45.956;13.632;2023-06-19T05:17:51;100685.09;;;18.18;66.11
34237;BME280;20501;45.956;13.632;2023-06-19T05:20:17;100685.91;;;18.34;64.94
34237;BME280;20501;45.956;13.632;2023-06-19T05:22:43;100683.56;;;18.31;62.32
34237;BME280;20501;45.956;13.632;2023-06-19T05:25:08;100686.69;;;18.28;62.28
34237;BME280;20501;45.956;13.632;2023-06-19T05:27:34;100680.66;;;18.32;62.47
34237;BME280;20501;45.956;13.632;2023-06-19T05:29:59;100681.69;;;18.46;62.36
34237;BME280;20501;45.956;13.632;2023-06-19T05:32:25;100678.38;;;18.51;61.64
34237;BME280;20501;45.956;13.632;2023-06-19T05:34:50;100681.31;;;18.49;61.32
34237;BME280;20501;45.956;13.632;2023-06-19T05:37:16;100691.78;;;18.61;63.49
34237;BME280;20501;45.956;13.632;2023-06-19T05:39:42;100679.31;;;18.73;60.92
34237;BME280;20501;45.956;13.632;2023-06-19T05:42:07;100684.19;;;18.78;60.96
34237;BME280;20501;45.956;13.632;2023-06-19T05:44:32;100677.47;;;18.80;62.65
34237;BME280;20501;45.956;13.632;2023-06-19T05:46:58;100676.00;;;18.78;61.46
34237;BME280;20501;45.956;13.632;2023-06-19T05:49:23;100673.50;;;18.83;62.29
34237;BME280;20501;45.956;13.632;2023-06-19T05:51:49;100674.63;;;18.88;61.14
34237;BME280;20501;45.956;13.632;2023-06-19T05:54:14;100679.44;;;18.86;61.50
34237;BME280;20501;45.956;13.632;2023-06-19T05:56:40;100680.66;;;18.99;61.42
34237;BME280;20501;45.956;13.632;2023-06-19T05:59:06;100683.03;;;19.02;62.07
34237;BME280;20501;45.956;13.632;2023-06-19T06:01:31;100680.53;;;19.07;61.73
34237;BME280;20501;45.956;13.632;2023-06-19T06:03:57;100677.16;;;19.05;61.99
34237;BME280;20501;45.956;13.632;2023-06-19T06:06:23;100675.94;;;19.08;61.62
34237;BME280;20501;45.956;13.632;2023-06-19T06:08:49;100675.84;;;19.01;61.38
34237;BME280;20501;45.956;13.632;2023-06-19T06:11:16;100672.91;;;19.02;61.43
34237;BME280;20501;45.956;13.632;2023-06-19T06:13:42;100667.50;;;19.09;61.03
34237;BME280;20501;45.956;13.632;2023-06-19T06:16:07;100675.13;;;19.14;60.02
34237;BME280;20501;45.956;13.632;2023-06-19T06:18:32;100670.69;;;19.13;61.03
34237;BME280;20501;45.956;13.632;2023-06-19T06:20:58;100674.56;;;19.18;60.97
34237;BME280;20501;45.956;13.632;2023-06-19T06:23:25;100681.81;;;19.26;61.16
34237;BME280;20501;45.956;13.632;2023-06-19T06:25:50;100674.03;;;19.30;61.93
34237;BME280;20501;45.956;13.632;2023-06-19T06:28:16;100682.16;;;19.38;61.16
34237;BME280;20501;45.956;13.632;2023-06-19T06:30:42;100683.03;;;19.45;61.08
34237;BME280;20501;45.956;13.632;2023-06-19T06:33:08;100678.31;;;19.61;61.27
34237;BME280;20501;45.956;13.632;2023-06-19T06:35:33;100683.75;;;19.76;60.63
34237;BME280;20501;45.956;13.632;2023-06-19T06:38:01;100683.41;;;19.86;61.18
34237;BME280;20501;45.956;13.632;2023-06-19T06:40:26;100681.00;;;20.04;60.03
34237;BME280;20501;45.956;13.632;2023-06-19T06:42:52;100677.66;;;20.09;59.42
34237;BME280;20501;45.956;13.632;2023-06-19T06:45:18;100679.22;;;20.18;59.13
34237;BME280;20501;45.956;13.632;2023-06-19T06:47:44;100683.09;;;20.37;58.57
34237;BME280;20501;45.956;13.632;2023-06-19T06:50:09;100680.22;;;20.46;57.61
34237;BME280;20501;45.956;13.632;2023-06-19T06:52:35;100682.06;;;20.38;57.16
34237;BME280;20501;45.956;13.632;2023-06-19T06:55:00;100675.91;;;20.36;60.31
34237;BME280;20501;45.956;13.632;2023-06-19T06:57:26;100677.69;;;20.51;58.92
34237;BME280;20501;45.956;13.632;2023-06-19T06:59:51;100683.91;;;20.66;57.26
34237;BME280;20501;45.956;13.632;2023-06-19T07:02:17;100678.84;;;20.70;56.86
34237;BME280;20501;45.956;13.632;2023-06-19T07:04:42;100684.06;;;20.58;60.40
34237;BME280;20501;45.956;13.632;2023-06-19T07:07:07;100680.94;;;20.68;57.08
34237;BME280;20501;45.956;13.632;2023-06-19T07:09:34;100682.72;;;20.82;56.98
34237;BME280;20501;45.956;13.632;2023-06-19T07:12:00;100681.69;;;20.83;56.51
34237;BME280;20501;45.956;13.632;2023-06-19T07:14:27;100680.41;;;20.86;56.19
34237;BME280;20501;45.956;13.632;2023-06-19T07:16:52;100681.69;;;20.97;57.52
34237;BME280;20501;45.956;13.632;2023-06-19T07:19:18;100676.44;;;21.02;57.16
34237;BME280;20501;45.956;13.632;2023-06-19T07:21:43;100669.31;;;21.14;57.71
34237;BME280;20501;45.956;13.632;2023-06-19T07:24:09;100673.31;;;21.25;55.10
34237;BME280;20501;45.956;13.632;2023-06-19T07:26:35;100678.16;;;21.03;57.29
34237;BME280;20501;45.956;13.632;2023-06-19T07:29:00;100669.50;;;21.19;57.47
34237;BME280;20501;45.956;13.632;2023-06-19T07:31:25;100678.16;;;21.23;56.48
34237;BME280;20501;45.956;13.632;2023-06-19T07:33:51;100678.84;;;21.39;56.19
34237;BME280;20501;45.956;13.632;2023-06-19T07:36:16;100671.72;;;21.64;57.15
34237;BME280;20501;45.956;13.632;2023-06-19T07:38:43;100668.75;;;21.59;56.30
34237;BME280;20501;45.956;13.632;2023-06-19T07:41:09;100676.34;;;21.64;55.76
34237;BME280;20501;45.956;13.632;2023-06-19T07:43:36;100668.75;;;21.73;54.40
34237;BME280;20501;45.956;13.632;2023-06-19T07:46:02;100673.34;;;21.32;54.61
34237;BME280;20501;45.956;13.632;2023-06-19T07:48:27;100672.06;;;21.34;56.57
34237;BME280;20501;45.956;13.632;2023-06-19T07:50:53;100671.28;;;21.88;60.09
34237;BME280;20501;45.956;13.632;2023-06-19T07:53:19;100670.63;;;22.06;55.95
34237;BME280;20501;45.956;13.632;2023-06-19T07:55:45;100672.09;;;21.95;55.91
34237;BME280;20501;45.956;13.632;2023-06-19T07:58:11;100677.41;;;21.97;54.98
34237;BME280;20501;45.956;13.632;2023-06-19T08:00:36;100680.34;;;22.08;54.03
34237;BME280;20501;45.956;13.632;2023-06-19T08:03:02;100674.25;;;21.79;55.97
34237;BME280;20501;45.956;13.632;2023-06-19T08:05:27;100674.81;;;22.15;53.02
34237;BME280;20501;45.956;13.632;2023-06-19T08:07:53;100683.00;;;22.35;51.17
34237;BME280;20501;45.956;13.632;2023-06-19T08:10:18;100679.59;;;22.60;53.83
34237;BME280;20501;45.956;13.632;2023-06-19T08:12:45;100673.69;;;22.50;50.89
34237;BME280;20501;45.956;13.632;2023-06-19T08:15:11;100676.44;;;22.36;50.84
34237;BME280;20501;45.956;13.632;2023-06-19T08:17:38;100675.66;;;22.22;52.32
34237;BME280;20501;45.956;13.632;2023-06-19T08:20:04;100676.63;;;22.62;51.71
34237;BME280;20501;45.956;13.632;2023-06-19T08:22:30;100675.31;;;22.71;51.22
34237;BME280;20501;45.956;13.632;2023-06-19T08:24:56;100680.34;;;21.88;54.79
34237;BME280;20501;45.956;13.632;2023-06-19T08:27:21;100672.75;;;22.76;52.07
34237;BME280;20501;45.956;13.632;2023-06-19T08:29:47;100664.78;;;23.00;52.00
34237;BME280;20501;45.956;13.632;2023-06-19T08:32:12;100668.78;;;23.11;52.22
34237;BME280;20501;45.956;13.632;2023-06-19T08:34:38;100663.19;;;23.49;50.05
34237;BME280;20501;45.956;13.632;2023-06-19T08:37:04;100669.34;;;23.52;48.78
34237;BME280;20501;45.956;13.632;2023-06-19T08:39:30;100660.97;;;23.40;50.00
34237;BME280;20501;45.956;13.632;2023-06-19T08:41:56;100662.06;;;23.32;49.84
34237;BME280;20501;45.956;13.632;2023-06-19T08:44:21;100663.97;;;22.99;51.63
34237;BME280;20501;45.956;13.632;2023-06-19T08:46:47;100652.09;;;22.47;52.38
34237;BME280;20501;45.956;13.632;2023-06-19T08:49:13;100661.72;;;23.15;51.52
34237;BME280;20501;45.956;13.632;2023-06-19T08:51:39;100652.44;;;23.09;51.32
34237;BME280;20501;45.956;13.632;2023-06-19T08:54:05;100661.69;;;23.54;49.65
34237;BME280;20501;45.956;13.632;2023-06-19T08:56:31;100662.34;;;23.24;51.20
34237;BME280;20501;45.956;13.632;2023-06-19T08:59:17;100660.34;;;23.38;50.95
34237;BME280;20501;45.956;13.632;2023-06-19T09:01:53;100659.28;;;23.00;50.07
34237;BME280;20501;45.956;13.632;2023-06-19T09:04:21;100658.97;;;23.22;49.47
34237;BME280;20501;45.956;13.632;2023-06-19T09:09:17;100658.94;;;22.83;50.86
34237;BME280;20501;45.956;13.632;2023-06-19T09:11:43;100657.63;;;23.31;50.12
34237;BME280;20501;45.956;13.632;2023-06-19T09:14:11;100660.34;;;23.38;50.11
34237;BME280;20501;45.956;13.632;2023-06-19T09:16:38;100667.16;;;23.60;49.15
34237;BME280;20501;45.956;13.632;2023-06-19T09:19:04;100657.59;;;23.38;49.70
34237;BME280;20501;45.956;13.632;2023-06-19T09:21:29;100652.84;;;23.13;49.55
34237;BME280;20501;45.956;13.632;2023-06-19T09:24:02;100645.03;;;23.10;51.43
34237;BME280;20501;45.956;13.632;2023-06-19T09:26:27;100644.78;;;22.79;52.55
34237;BME280;20501;45.956;13.632;2023-06-19T09:28:53;100649.88;;;23.46;51.23
34237;BME280;20501;45.956;13.632;2023-06-19T09:31:18;100648.88;;;22.63;53.07
34237;BME280;20501;45.956;13.632;2023-06-19T09:33:44;100647.50;;;23.18;51.24
34237;BME280;20501;45.956;13.632;2023-06-19T09:36:09;100644.38;;;23.72;48.57
34237;BME280;20501;45.956;13.632;2023-06-19T09:38:36;100643.41;;;23.59;48.72
34237;BME280;20501;45.956;13.632;2023-06-19T09:41:06;100654.09;;;23.49;49.81
34237;BME280;20501;45.956;13.632;2023-06-19T09:43:40;100643.19;;;23.61;50.05
34237;BME280;20501;45.956;13.632;2023-06-19T09:46:07;100648.13;;;24.03;49.23
34237;BME280;20501;45.956;13.632;2023-06-19T09:48:35;100647.56;;;23.43;50.44
34237;BME280;20501;45.956;13.632;2023-06-19T09:51:20;100640.88;;;23.58;50.15
34237;BME280;20501;45.956;13.632;2023-06-19T09:53:47;100635.31;;;23.00;50.11
34237;BME280;20501;45.956;13.632;2023-06-19T09:56:13;100646.13;;;23.41;49.60
34237;BME280;20501;45.956;13.632;2023-06-19T09:58:40;100642.09;;;23.04;51.55
34237;BME280;20501;45.956;13.632;2023-06-19T10:01:07;100638.22;;;23.70;48.82
34237;BME280;20501;45.956;13.632;2023-06-19T10:03:34;100637.44;;;23.62;50.71
34237;BME280;20501;45.956;13.632;2023-06-19T10:06:00;100637.16;;;23.45;50.27
34237;BME280;20501;45.956;13.632;2023-06-19T10:08:52;100637.16;;;23.96;47.83
34237;BME280;20501;45.956;13.632;2023-06-19T10:11:18;100630.66;;;23.84;47.85
34237;BME280;20501;45.956;13.632;2023-06-19T10:13:45;100633.38;;;23.90;49.28
34237;BME280;20501;45.956;13.632;2023-06-19T10:16:23;100638.22;;;23.70;50.31
34237;BME280;20501;45.956;13.632;2023-06-19T10:18:49;100632.31;;;23.66;50.75
34237;BME280;20501;45.956;13.632;2023-06-19T10:21:19;100632.03;;;23.49;51.14
34237;BME280;20501;45.956;13.632;2023-06-19T10:23:57;100629.69;;;22.88;52.59
34237;BME280;20501;45.956;13.632;2023-06-19T10:26:31;100629.66;;;23.78;50.18
34237;BME280;20501;45.956;13.632;2023-06-19T10:28:56;100637.13;;;24.89;48.13
34237;BME280;20501;45.956;13.632;2023-06-19T10:31:22;100629.34;;;24.49;49.49
34237;BME280;20501;45.956;13.632;2023-06-19T10:33:47;100632.88;;;24.37;49.56
34237;BME280;20501;45.956;13.632;2023-06-19T10:36:18;100634.47;;;24.64;49.51
34237;BME280;20501;45.956;13.632;2023-06-19T10:38:45;100634.84;;;24.86;48.92
34237;BME280;20501;45.956;13.632;2023-06-19T10:41:20;100623.91;;;24.42;50.24
34237;BME280;20501;45.956;13.632;2023-06-19T10:44:07;100624.13;;;23.34;53.20
34237;BME280;20501;45.956;13.632;2023-06-19T10:46:38;100610.22;;;23.47;53.43
34237;BME280;20501;45.956;13.632;2023-06-19T10:49:06;100626.03;;;24.77;50.74
34237;BME280;20501;45.956;13.632;2023-06-19T10:51:40;100620.03;;;24.13;51.05
34237;BME280;20501;45.956;13.632;2023-06-19T10:54:06;100617.25;;;24.31;50.08
34237;BME280;20501;45.956;13.632;2023-06-19T10:56:33;100610.84;;;23.75;51.86
34237;BME280;20501;45.956;13.632;2023-06-19T10:59:00;100609.22;;;24.30;50.53
34237;BME280;20501;45.956;13.632;2023-06-19T11:01:33;100605.03;;;24.57;51.82
34237;BME280;20501;45.956;13.632;2023-06-19T11:03:58;100609.19;;;24.11;51.82
34237;BME280;20501;45.956;13.632;2023-06-19T11:06:24;100604.72;;;24.47;50.45
34237;BME280;20501;45.956;13.632;2023-06-19T11:08:53;100613.78;;;24.36;50.66
34237;BME280;20501;45.956;13.632;2023-06-19T11:11:18;100603.63;;;24.67;50.53
34237;BME280;20501;45.956;13.632;2023-06-19T11:13:45;100613.91;;;25.09;47.85
34237;BME280;20501;45.956;13.632;2023-06-19T11:16:10;100611.59;;;24.75;48.92
34237;BME280;20501;45.956;13.632;2023-06-19T11:18:36;100612.41;;;24.45;50.17
34237;BME280;20501;45.956;13.632;2023-06-19T11:21:01;100601.69;;;24.18;50.79
34237;BME280;20501;45.956;13.632;2023-06-19T11:23:29;100604.31;;;24.62;51.84
34237;BME280;20501;45.956;13.632;2023-06-19T11:26:05;100610.00;;;24.49;51.90
34237;BME280;20501;45.956;13.632;2023-06-19T11:28:31;100605.78;;;25.26;50.76
34237;BME280;20501;45.956;13.632;2023-06-19T11:31:01;100608.69;;;25.00;50.17
34237;BME280;20501;45.956;13.632;2023-06-19T11:33:26;100615.63;;;25.33;50.22
34237;BME280;20501;45.956;13.632;2023-06-19T11:35:53;100608.47;;;25.56;50.02
34237;BME280;20501;45.956;13.632;2023-06-19T11:38:21;100607.31;;;25.10;50.68
34237;BME280;20501;45.956;13.632;2023-06-19T11:40:47;100606.59;;;25.38;52.76
34237;BME280;20501;45.956;13.632;2023-06-19T11:43:27;100609.97;;;25.28;52.54
34237;BME280;20501;45.956;13.632;2023-06-19T11:45:53;100616.03;;;25.61;52.10
34237;BME280;20501;45.956;13.632;2023-06-19T11:48:25;100608.59;;;25.85;52.09
34237;BME280;20501;45.956;13.632;2023-06-19T11:50:51;100609.63;;;24.82;53.57
34237;BME280;20501;45.956;13.632;2023-06-19T11:53:22;100599.28;;;25.20;51.55
34237;BME280;20501;45.956;13.632;2023-06-19T11:55:47;100611.38;;;25.85;48.99
34237;BME280;20501;45.956;13.632;2023-06-19T11:58:14;100610.94;;;25.34;50.39
34237;BME280;20501;45.956;13.632;2023-06-19T12:00:44;100612.06;;;26.04;49.13
34237;BME280;20501;45.956;13.632;2023-06-19T12:03:10;100605.34;;;25.53;52.17
34237;BME280;20501;45.956;13.632;2023-06-19T12:05:37;100607.28;;;25.52;51.16
34237;BME280;20501;45.956;13.632;2023-06-19T12:08:02;100613.63;;;25.41;51.18
34237;BME280;20501;45.956;13.632;2023-06-19T12:10:29;100614.50;;;25.65;50.57
34237;BME280;20501;45.956;13.632;2023-06-19T12:12:55;100620.59;;;25.55;50.40
34237;BME280;20501;45.956;13.632;2023-06-19T12:15:20;100617.28;;;25.23;50.71
34237;BME280;20501;45.956;13.632;2023-06-19T12:17:46;100614.72;;;25.52;50.91
34237;BME280;20501;45.956;13.632;2023-06-19T12:20:12;100620.84;;;25.89;49.50
34237;BME280;20501;45.956;13.632;2023-06-19T12:22:41;100606.41;;;25.87;51.26
34237;BME280;20501;45.956;13.632;2023-06-19T12:25:08;100621.84;;;25.29;51.95
34237;BME280;20501;45.956;13.632;2023-06-19T12:27:33;100620.94;;;25.35;51.98
34237;BME280;20501;45.956;13.632;2023-06-19T12:29:58;100623.50;;;25.60;51.65
34237;BME280;20501;45.956;13.632;2023-06-19T12:32:24;100629.66;;;25.86;51.37
34237;BME280;20501;45.956;13.632;2023-06-19T12:34:50;100630.97;;;25.84;53.17
34237;BME280;20501;45.956;13.632;2023-06-19T12:37:19;100634.81;;;26.06;54.71
34237;BME280;20501;45.956;13.632;2023-06-19T12:39:46;100618.88;;;25.30;54.86
34237;BME280;20501;45.956;13.632;2023-06-19T12:42:11;100614.59;;;25.70;55.14
34237;BME280;20501;45.956;13.632;2023-06-19T12:44:41;100629.88;;;26.08;55.45
34237;BME280;20501;45.956;13.632;2023-06-19T12:47:07;100627.28;;;25.24;56.95